Time;durP1;ratioP1;P1;durP2;ratioP2;P2;SDS_P1;SDS_P2;PMS_P1;PMS_P2;Temp;Humidity;BMP_temperature;BMP_pressure;BME280_temperature;BME280_humidity;BME280_pressure;Samples;Min_cycle;Max_cycle;Signal;HPM_P1;HPM_P2
2023/08/23 00:01:03;;;;;;;11.77;9.53;;;;;;;;;;2614880;54;20487;-73
2023/08/23 00:06:33;;;;;;;11.43;10.07;;;;;;;;;;2614794;54;20415;-73
2023/08/23 00:12:02;;;;;;;9.80;8.90;;;;;;;;;;2615464;54;21094;-73
2023/08/23 00:17:32;;;;;;;11.93;9.73;;;;;;;;;;2615242;54;20386;-72
2023/08/23 00:23:01;;;;;;;10.40;9.10;;;;;;;;;;2615413;54;20411;-70
2023/08/23 00:28:31;;;;;;;10.40;8.87;;;;;;;;;;2615357;54;20402;-70
2023/08/23 00:34:01;;;;;;;13.00;10.10;;;;;;;;;;2615469;54;20379;-71
2023/08/23 00:39:30;;;;;;;12.53;10.37;;;;;;;;;;2615655;54;21673;-70
2023/08/23 00:45:00;;;;;;;10.53;9.60;;;;;;;;;;2615556;54;21001;-71
2023/08/23 00:50:30;;;;;;;12.10;10.73;;;;;;;;;;2615850;39;20939;-71
2023/08/23 00:56:00;;;;;;;13.47;10.00;;;;;;;;;;2615782;54;20403;-72
2023/08/23 01:01:29;;;;;;;10.93;9.57;;;;;;;;;;2615240;54;20447;-70
2023/08/23 01:07:09;;;;;;;17.37;10.37;;;;;;;;;;2615256;54;20439;-70
2023/08/23 01:12:38;;;;;;;12.53;9.63;;;;;;;;;;2615921;54;20399;-72
2023/08/23 01:24:15;;;;;;;14.53;10.90;;;;;;;;;;2615244;54;20414;-74
2023/08/23 01:29:45;;;;;;;13.33;11.30;;;;;;;;;;2615355;54;20358;-74
2023/08/23 01:35:18;;;;;;;14.00;10.60;;;;;;;;;;2615489;54;20394;-73
2023/08/23 01:40:49;;;;;;;16.00;11.30;;;;;;;;;;2615360;54;20997;-73
2023/08/23 01:46:18;;;;;;;14.50;10.80;;;;;;;;;;2615253;54;20366;-74
2023/08/23 01:51:48;;;;;;;16.80;11.23;;;;;;;;;;2615631;54;20959;-74
2023/08/23 01:57:18;;;;;;;12.17;9.63;;;;;;;;;;2615005;54;20411;-73
2023/08/23 02:02:48;;;;;;;14.67;10.87;;;;;;;;;;2615777;54;20347;-73
2023/08/23 02:08:17;;;;;;;10.13;9.10;;;;;;;;;;2615149;54;20487;-74
2023/08/23 02:13:47;;;;;;;13.90;11.50;;;;;;;;;;2615288;54;20933;-74
2023/08/23 02:22:52;;;;;;;13.27;9.47;;;;;;;;;;2615797;39;20445;-74
2023/08/23 02:28:21;;;;;;;10.80;9.73;;;;;;;;;;2615781;39;20738;-74
2023/08/23 02:33:50;;;;;;;10.17;8.90;;;;;;;;;;2615337;54;20371;-74
2023/08/23 02:39:20;;;;;;;9.80;8.90;;;;;;;;;;2614064;54;20374;-73
2023/08/23 02:44:49;;;;;;;14.13;10.37;;;;;;;;;;2614469;54;20382;-73
2023/08/23 02:50:19;;;;;;;10.07;9.07;;;;;;;;;;2613639;54;20363;-72
2023/08/23 02:55:49;;;;;;;10.87;9.77;;;;;;;;;;2614515;54;20391;-73
2023/08/23 03:01:18;;;;;;;16.97;11.70;;;;;;;;;;2614981;54;20367;-73
2023/08/23 03:06:48;;;;;;;14.93;11.63;;;;;;;;;;2614448;54;20371;-72
2023/08/23 03:12:18;;;;;;;13.17;9.90;;;;;;;;;;2614705;47;20366;-73
2023/08/23 03:17:47;;;;;;;14.90;11.03;;;;;;;;;;2614400;54;20355;-72
2023/08/23 03:23:36;;;;;;;13.80;10.37;;;;;;;;;;2614300;54;20908;-73
2023/08/23 03:29:05;;;;;;;15.87;10.83;;;;;;;;;;2614309;54;20972;-73
2023/08/23 03:34:35;;;;;;;16.07;12.10;;;;;;;;;;2614325;54;20371;-73
2023/08/23 03:40:04;;;;;;;17.27;11.20;;;;;;;;;;2614826;54;20449;-73
2023/08/23 03:45:34;;;;;;;17.80;10.53;;;;;;;;;;2614620;54;21254;-71
2023/08/23 03:51:04;;;;;;;13.60;10.90;;;;;;;;;;2614762;39;20783;-71
2023/08/23 03:56:34;;;;;;;12.47;9.70;;;;;;;;;;2613854;54;20671;-70
2023/08/23 04:02:03;;;;;;;13.10;8.90;;;;;;;;;;2613942;54;20415;-73
2023/08/23 04:07:33;;;;;;;11.97;10.70;;;;;;;;;;2614653;54;20471;-71
2023/08/23 04:13:02;;;;;;;13.90;10.90;;;;;;;;;;2615063;39;20414;-71
2023/08/23 04:18:32;;;;;;;21.93;10.93;;;;;;;;;;2614515;54;20422;-71
2023/08/23 04:27:36;;;;;;;17.63;10.40;;;;;;;;;;2615061;39;20493;-70
2023/08/23 04:33:05;;;;;;;14.77;12.40;;;;;;;;;;2614840;39;20741;-70
2023/08/23 04:38:35;;;;;;;19.17;15.30;;;;;;;;;;2614595;39;20762;-70
2023/08/23 04:44:05;;;;;;;16.57;13.83;;;;;;;;;;2614293;54;20503;-71
2023/08/23 04:49:34;;;;;;;17.53;11.93;;;;;;;;;;2614421;54;20432;-71
2023/08/23 04:55:05;;;;;;;13.13;11.73;;;;;;;;;;2615181;54;20401;-71
2023/08/23 05:00:34;;;;;;;18.20;10.97;;;;;;;;;;2614948;54;20427;-71
2023/08/23 05:06:04;;;;;;;15.10;11.60;;;;;;;;;;2614992;54;20499;-71
2023/08/23 05:11:34;;;;;;;16.53;13.30;;;;;;;;;;2615171;39;20689;-71
2023/08/23 05:17:04;;;;;;;18.60;14.03;;;;;;;;;;2614641;54;20379;-71
2023/08/23 05:22:33;;;;;;;15.03;13.33;;;;;;;;;;2615467;54;20390;-71
2023/08/23 05:28:03;;;;;;;19.10;14.97;;;;;;;;;;2615728;54;20401;-73
2023/08/23 05:33:33;;;;;;;15.37;11.93;;;;;;;;;;2615904;54;20363;-73
2023/08/23 05:39:03;;;;;;;17.20;11.90;;;;;;;;;;2615690;54;20410;-74
2023/08/23 05:44:32;;;;;;;13.73;12.37;;;;;;;;;;2615463;54;20431;-73
2023/08/23 05:50:02;;;;;;;18.93;13.37;;;;;;;;;;2615579;54;20391;-74
2023/08/23 05:55:32;;;;;;;13.97;12.57;;;;;;;;;;2615500;54;20410;-73
2023/08/23 06:01:01;;;;;;;14.23;12.80;;;;;;;;;;2614804;54;20406;-73
2023/08/23 06:06:32;;;;;;;14.20;12.80;;;;;;;;;;2615139;54;20897;-74
2023/08/23 06:12:01;;;;;;;13.73;12.50;;;;;;;;;;2615160;54;20383;-73
2023/08/23 06:17:31;;;;;;;14.07;12.83;;;;;;;;;;2615123;54;20418;-74
2023/08/23 06:23:00;;;;;;;14.20;13.00;;;;;;;;;;2614998;54;20410;-74
2023/08/23 06:32:04;;;;;;;14.83;13.37;;;;;;;;;;2615844;54;20470;-73
2023/08/23 06:37:34;;;;;;;15.23;12.67;;;;;;;;;;2615375;54;20479;-74
2023/08/23 06:43:04;;;;;;;15.87;13.90;;;;;;;;;;2615356;54;20371;-75
2023/08/23 06:48:34;;;;;;;13.77;12.60;;;;;;;;;;2615219;54;20386;-74
2023/08/23 06:54:04;;;;;;;16.27;14.87;;;;;;;;;;2615205;54;20386;-73
2023/08/23 06:59:35;;;;;;;15.53;14.07;;;;;;;;;;2615093;54;20469;-73
2023/08/23 07:05:05;;;;;;;16.33;14.93;;;;;;;;;;2615374;39;20817;-73
2023/08/23 07:10:35;;;;;;;16.47;15.07;;;;;;;;;;2615526;39;20768;-74
2023/08/23 07:16:04;;;;;;;17.70;16.30;;;;;;;;;;2614475;54;20515;-75
2023/08/23 07:21:34;;;;;;;18.30;16.70;;;;;;;;;;2614598;54;20375;-73
2023/08/23 07:27:04;;;;;;;20.23;18.47;;;;;;;;;;2614425;54;20507;-73
2023/08/23 07:32:52;;;;;;;18.83;17.33;;;;;;;;;;2614587;54;20498;-75
2023/08/23 07:38:22;;;;;;;18.90;17.50;;;;;;;;;;2614528;54;20932;-75
2023/08/23 07:43:51;;;;;;;19.77;17.93;;;;;;;;;;2614545;54;20383;-74
2023/08/23 07:49:21;;;;;;;19.87;17.80;;;;;;;;;;2614826;54;20394;-73
2023/08/23 07:54:51;;;;;;;20.33;18.40;;;;;;;;;;2614798;39;20833;-74
2023/08/23 08:00:20;;;;;;;21.10;19.40;;;;;;;;;;2614485;54;20479;-74
2023/08/23 08:05:50;;;;;;;23.37;21.17;;;;;;;;;;2613929;54;20375;-74
2023/08/23 08:11:19;;;;;;;21.93;19.73;;;;;;;;;;2614334;54;20463;-74
2023/08/23 08:16:49;;;;;;;19.10;17.70;;;;;;;;;;2613735;54;20358;-74
2023/08/23 08:22:19;;;;;;;17.50;15.80;;;;;;;;;;2614368;54;20386;-73
2023/08/23 08:27:50;;;;;;;17.73;16.50;;;;;;;;;;2614509;54;20383;-74
2023/08/23 08:36:49;;;;;;;18.00;16.70;;;;;;;;;;2615068;54;20397;-74
2023/08/23 08:42:18;;;;;;;18.47;17.03;;;;;;;;;;2615355;54;20940;-74
2023/08/23 08:47:49;;;;;;;19.80;17.87;;;;;;;;;;2615692;54;20399;-73
2023/08/23 08:53:19;;;;;;;18.43;17.03;;;;;;;;;;2615692;54;20382;-73
2023/08/23 08:58:49;;;;;;;18.80;17.37;;;;;;;;;;2615389;54;20976;-73
2023/08/23 09:04:20;;;;;;;17.27;16.00;;;;;;;;;;2615312;54;20418;-74
2023/08/23 09:09:49;;;;;;;17.40;16.10;;;;;;;;;;2615144;54;20439;-74
2023/08/23 09:15:23;;;;;;;17.43;16.03;;;;;;;;;;2615389;54;20399;-74
2023/08/23 09:20:53;;;;;;;17.70;16.67;;;;;;;;;;2615538;54;20467;-73
2023/08/23 09:26:23;;;;;;;18.60;17.40;;;;;;;;;;2615135;54;20472;-73
2023/08/23 09:31:53;;;;;;;19.10;17.33;;;;;;;;;;2615070;54;20941;-73
2023/08/23 09:43:34;;;;;;;16.50;15.20;;;;;;;;;;2614589;46;20374;-73
2023/08/23 09:49:05;;;;;;;17.10;15.90;;;;;;;;;;2614758;54;20422;-73
2023/08/23 09:54:53;;;;;;;16.27;15.37;;;;;;;;;;2615181;54;20379;-73
2023/08/23 10:00:23;;;;;;;17.00;16.00;;;;;;;;;;2614835;54;20355;-72
2023/08/23 10:05:53;;;;;;;17.53;16.00;;;;;;;;;;2614802;54;20415;-72
2023/08/23 10:11:23;;;;;;;17.07;15.90;;;;;;;;;;2614970;54;20507;-73
2023/08/23 10:16:53;;;;;;;15.63;14.53;;;;;;;;;;2614508;54;20382;-72
2023/08/23 10:22:24;;;;;;;16.50;15.43;;;;;;;;;;2614679;54;20482;-72
2023/08/23 10:27:54;;;;;;;16.60;15.50;;;;;;;;;;2614865;39;20868;-73
2023/08/23 10:33:24;;;;;;;18.03;16.03;;;;;;;;;;2614466;54;20391;-73
2023/08/23 10:38:59;;;;;;;16.53;15.10;;;;;;;;;;2614816;54;20467;-72
2023/08/23 10:44:29;;;;;;;14.87;13.97;;;;;;;;;;2613962;54;20379;-72
2023/08/23 10:49:59;;;;;;;16.57;15.67;;;;;;;;;;2614594;54;20399;-75
2023/08/23 10:55:28;;;;;;;15.70;14.80;;;;;;;;;;2614271;54;20874;-73
2023/08/23 11:00:58;;;;;;;16.20;15.10;;;;;;;;;;2614466;54;20438;-73
2023/08/23 11:06:27;;;;;;;17.27;16.00;;;;;;;;;;2614220;54;20379;-75
2023/08/23 11:11:57;;;;;;;16.50;15.40;;;;;;;;;;2614551;54;20519;-74
2023/08/23 11:17:27;;;;;;;16.63;15.53;;;;;;;;;;2614432;54;20398;-74
2023/08/23 11:22:57;;;;;;;18.10;16.67;;;;;;;;;;2614558;54;21302;-73
2023/08/23 11:28:26;;;;;;;16.57;15.77;;;;;;;;;;2614158;54;20351;-74
2023/08/23 11:34:07;;;;;;;16.90;15.70;;;;;;;;;;2614816;54;20406;-74
2023/08/23 11:36:39;;;;;;;17.40;16.53;;;;;;;;;;2614496;39;21997;-74
2023/08/23 11:39:06;;;;;;;16.40;15.40;;;;;;;;;;2614572;54;20447;-74
2023/08/23 11:44:35;;;;;;;18.00;16.47;;;;;;;;;;2614357;54;20395;-74
2023/08/23 11:50:08;;;;;;;16.73;15.50;;;;;;;;;;2614311;54;20423;-73
2023/08/23 11:55:40;;;;;;;16.30;15.20;;;;;;;;;;2613964;54;20370;-73
2023/08/23 12:01:10;;;;;;;16.07;15.07;;;;;;;;;;2614206;54;20415;-73
2023/08/23 12:06:40;;;;;;;15.80;14.67;;;;;;;;;;2615044;54;20386;-73
2023/08/23 12:12:09;;;;;;;16.80;15.63;;;;;;;;;;2615586;54;20933;-73
2023/08/23 12:17:39;;;;;;;17.80;16.53;;;;;;;;;;2615122;54;20407;-73
2023/08/23 12:23:08;;;;;;;19.50;17.73;;;;;;;;;;2615172;54;20913;-74
2023/08/23 12:28:38;;;;;;;19.00;17.90;;;;;;;;;;2614922;54;20378;-74
2023/08/23 12:34:07;;;;;;;18.30;16.93;;;;;;;;;;2615048;54;20419;-73
2023/08/23 12:36:36;;;;;;;16.40;15.60;;;;;;;;;;2614146;47;20392;-74
2023/08/23 12:39:02;;;;;;;17.57;16.27;;;;;;;;;;2615032;54;20418;-72
2023/08/23 12:44:33;;;;;;;19.90;18.23;;;;;;;;;;2614997;54;20944;-74
2023/08/23 12:50:02;;;;;;;19.23;17.83;;;;;;;;;;2614799;54;21265;-74
2023/08/23 12:55:32;;;;;;;19.87;17.87;;;;;;;;;;2614184;54;20466;-73
2023/08/23 13:01:02;;;;;;;18.70;17.20;;;;;;;;;;2615012;54;20419;-74
2023/08/23 13:06:32;;;;;;;17.67;16.67;;;;;;;;;;2614857;54;20391;-70
2023/08/23 13:12:02;;;;;;;17.30;16.40;;;;;;;;;;2615261;54;20386;-70
2023/08/23 13:17:31;;;;;;;18.20;17.00;;;;;;;;;;2614786;54;20363;-70
2023/08/23 13:23:01;;;;;;;17.83;16.73;;;;;;;;;;2615570;39;21141;-70
2023/08/23 13:28:30;;;;;;;17.70;16.50;;;;;;;;;;2614908;54;20415;-70
2023/08/23 13:34:00;;;;;;;17.90;16.80;;;;;;;;;;2615076;54;20374;-70
2023/08/23 13:36:40;;;;;;;17.77;16.87;;;;;;;;;;2615042;54;20467;-71
2023/08/23 13:39:07;;;;;;;18.90;17.80;;;;;;;;;;2615262;54;20415;-71
2023/08/23 13:44:37;;;;;;;17.93;16.80;;;;;;;;;;2614867;54;20355;-70
2023/08/23 13:50:06;;;;;;;18.13;17.00;;;;;;;;;;2615028;54;20432;-70
2023/08/23 13:55:36;;;;;;;16.70;15.60;;;;;;;;;;2614756;54;20402;-70
2023/08/23 14:01:06;;;;;;;16.20;15.10;;;;;;;;;;2614371;54;20438;-71
2023/08/23 14:06:35;;;;;;;17.10;16.10;;;;;;;;;;2614755;54;20446;-69
2023/08/23 14:12:05;;;;;;;16.43;15.63;;;;;;;;;;2615128;54;20410;-70
2023/08/23 14:17:35;;;;;;;16.73;15.47;;;;;;;;;;2614503;54;20419;-73
2023/08/23 14:23:04;;;;;;;16.30;15.40;;;;;;;;;;2615522;39;20751;-73
2023/08/23 14:28:36;;;;;;;17.60;16.37;;;;;;;;;;2614763;54;20362;-72
2023/08/23 14:34:05;;;;;;;17.13;16.13;;;;;;;;;;2614590;54;20358;-72
2023/08/23 14:36:40;;;;;;;15.90;15.00;;;;;;;;;;2614741;54;21045;-73
2023/08/23 14:39:06;;;;;;;15.53;14.33;;;;;;;;;;2615269;39;20938;-73
2023/08/23 14:44:36;;;;;;;18.43;16.90;;;;;;;;;;2614643;54;20346;-72
2023/08/23 14:50:05;;;;;;;16.00;14.87;;;;;;;;;;2614650;54;20394;-72
2023/08/23 14:55:35;;;;;;;17.50;16.40;;;;;;;;;;2614521;54;20407;-73
2023/08/23 15:01:05;;;;;;;17.37;15.93;;;;;;;;;;2614531;54;20403;-72
2023/08/23 15:06:34;;;;;;;16.97;16.07;;;;;;;;;;2614471;54;20427;-73
2023/08/23 15:12:04;;;;;;;16.27;15.07;;;;;;;;;;2614442;54;20500;-72
2023/08/23 15:17:34;;;;;;;15.63;14.43;;;;;;;;;;2614132;54;20388;-72
2023/08/23 15:23:03;;;;;;;16.43;15.20;;;;;;;;;;2614269;54;21541;-72
2023/08/23 15:28:33;;;;;;;16.00;15.10;;;;;;;;;;2614112;54;20974;-70
2023/08/23 15:34:03;;;;;;;16.30;15.10;;;;;;;;;;2614504;54;20945;-70
2023/08/23 15:36:38;;;;;;;15.57;14.67;;;;;;;;;;2614121;39;20779;-70
2023/08/23 15:39:04;;;;;;;16.63;15.70;;;;;;;;;;2614292;54;20430;-70
2023/08/23 15:44:34;;;;;;;16.57;15.63;;;;;;;;;;2614271;54;20422;-73
2023/08/23 15:50:04;;;;;;;15.93;14.63;;;;;;;;;;2614350;54;20403;-70
2023/08/23 15:55:33;;;;;;;14.27;13.47;;;;;;;;;;2614337;54;20796;-69
2023/08/23 16:01:03;;;;;;;15.00;14.20;;;;;;;;;;2614439;54;20903;-70
2023/08/23 16:06:33;;;;;;;14.20;13.60;;;;;;;;;;2615320;31;20862;-73
2023/08/23 16:12:02;;;;;;;14.20;13.23;;;;;;;;;;2614302;54;20387;-72
2023/08/23 16:17:32;;;;;;;14.70;13.87;;;;;;;;;;2615034;31;20784;-73
2023/08/23 16:23:02;;;;;;;15.23;14.00;;;;;;;;;;2614071;54;20363;-73
2023/08/23 16:28:32;;;;;;;14.27;13.47;;;;;;;;;;2614473;39;20869;-72
2023/08/23 16:34:02;;;;;;;15.87;14.83;;;;;;;;;;2614290;54;20374;-72
2023/08/23 16:36:38;;;;;;;14.50;13.63;;;;;;;;;;2614038;47;20419;-75
2023/08/23 16:39:05;;;;;;;14.33;13.63;;;;;;;;;;2613584;48;20403;-74
2023/08/23 16:44:34;;;;;;;13.50;12.90;;;;;;;;;;2614041;54;20395;-74
2023/08/23 16:50:04;;;;;;;15.07;14.37;;;;;;;;;;2615010;39;20429;-74
2023/08/23 16:55:35;;;;;;;14.83;13.73;;;;;;;;;;2614556;54;20362;-75
2023/08/23 17:01:04;;;;;;;15.60;14.33;;;;;;;;;;2615272;54;20431;-74
2023/08/23 17:06:34;;;;;;;15.10;14.40;;;;;;;;;;2614649;54;20484;-73
2023/08/23 17:12:04;;;;;;;14.77;13.87;;;;;;;;;;2615067;39;20743;-74
2023/08/23 17:17:34;;;;;;;14.40;13.70;;;;;;;;;;2615004;54;20398;-75
2023/08/23 17:23:04;;;;;;;14.20;13.60;;;;;;;;;;2614721;54;21267;-73
2023/08/23 17:28:34;;;;;;;14.77;13.97;;;;;;;;;;2615259;54;20535;-74
2023/08/23 17:34:03;;;;;;;16.40;15.27;;;;;;;;;;2615099;54;20409;-74
2023/08/23 17:36:39;;;;;;;14.20;13.50;;;;;;;;;;2613813;54;20400;-75
2023/08/23 17:39:05;;;;;;;14.30;13.40;;;;;;;;;;2614347;54;20455;-75
2023/08/23 17:44:35;;;;;;;13.73;13.13;;;;;;;;;;2614666;54;20369;-75
2023/08/23 17:50:04;;;;;;;14.60;13.90;;;;;;;;;;2615201;54;20390;-75
2023/08/23 17:55:34;;;;;;;14.87;14.03;;;;;;;;;;2615413;39;22199;-74
2023/08/23 18:07:01;;;;;;;15.10;14.17;;;;;;;;;;2615143;54;20395;-75
2023/08/23 18:12:30;;;;;;;15.00;14.20;;;;;;;;;;2615238;54;20395;-75
2023/08/23 18:18:02;;;;;;;14.97;14.10;;;;;;;;;;2615531;54;20399;-74
2023/08/23 18:23:31;;;;;;;13.80;13.03;;;;;;;;;;2614997;54;20366;-73
2023/08/23 18:29:01;;;;;;;14.17;13.33;;;;;;;;;;2615264;54;20386;-73
2023/08/23 18:34:31;;;;;;;14.80;14.10;;;;;;;;;;2615046;54;20351;-74
2023/08/23 18:43:38;;;;;;;13.50;12.70;;;;;;;;;;2615152;54;20431;-74
2023/08/23 18:49:09;;;;;;;13.90;12.90;;;;;;;;;;2615354;54;20371;-73
2023/08/23 18:54:39;;;;;;;13.70;12.70;;;;;;;;;;2615376;54;20454;-74
2023/08/23 19:00:09;;;;;;;13.30;12.60;;;;;;;;;;2615071;47;20520;-74
2023/08/23 19:05:38;;;;;;;13.63;12.57;;;;;;;;;;2614172;54;20414;-74
2023/08/23 19:11:08;;;;;;;13.20;12.07;;;;;;;;;;2614669;54;20415;-75
2023/08/23 19:16:39;;;;;;;13.83;12.70;;;;;;;;;;2613436;54;20382;-74
2023/08/23 19:22:08;;;;;;;14.93;13.33;;;;;;;;;;2614660;54;20419;-74
2023/08/23 19:27:38;;;;;;;13.20;12.20;;;;;;;;;;2614286;54;20403;-75
2023/08/23 19:33:07;;;;;;;12.70;12.00;;;;;;;;;;2614804;54;20363;-74
2023/08/23 19:38:37;;;;;;;12.43;11.63;;;;;;;;;;2614247;54;20404;-75
2023/08/23 19:44:07;;;;;;;12.03;11.13;;;;;;;;;;2614181;54;20439;-76
2023/08/23 19:49:37;;;;;;;11.87;11.07;;;;;;;;;;2614608;54;20391;-75
2023/08/23 19:55:07;;;;;;;13.53;12.33;;;;;;;;;;2614613;54;20391;-76
2023/08/23 20:00:36;;;;;;;11.53;10.63;;;;;;;;;;2614414;54;20362;-74
2023/08/23 20:06:06;;;;;;;12.90;11.77;;;;;;;;;;2614089;54;20415;-74
2023/08/23 20:11:35;;;;;;;11.63;10.77;;;;;;;;;;2615149;47;20414;-71
2023/08/23 20:17:05;;;;;;;12.13;10.90;;;;;;;;;;2614350;54;20378;-71
2023/08/23 20:22:35;;;;;;;11.70;10.90;;;;;;;;;;2614167;54;20367;-71
2023/08/23 20:28:06;;;;;;;13.90;11.73;;;;;;;;;;2615367;54;20391;-70
2023/08/23 20:33:35;;;;;;;14.03;11.87;;;;;;;;;;2615110;54;20415;-71
2023/08/23 20:39:05;;;;;;;13.97;12.60;;;;;;;;;;2614960;54;20378;-70
2023/08/23 20:53:39;;;;;;;13.50;12.10;;;;;;;;;;2615198;54;20383;-72
2023/08/23 20:59:09;;;;;;;12.87;11.63;;;;;;;;;;2615148;54;20945;-70
2023/08/23 21:04:38;;;;;;;11.90;10.73;;;;;;;;;;2615440;39;20490;-70
2023/08/23 21:10:08;;;;;;;18.27;10.60;;;;;;;;;;2615068;54;20394;-70
2023/08/23 21:15:47;;;;;;;13.03;11.57;;;;;;;;;;2614780;54;20475;-70
2023/08/23 21:21:17;;;;;;;15.53;11.60;;;;;;;;;;2615350;54;20430;-75
2023/08/23 21:24:02;;;;;;;12.73;11.57;;;;;;;;;;2614847;54;20420;-73
2023/08/23 21:26:28;;;;;;;16.53;11.83;;;;;;;;;;2614812;39;20823;-74
2023/08/23 21:31:58;;;;;;;12.53;10.77;;;;;;;;;;2615150;54;20415;-74
2023/08/23 21:37:27;;;;;;;13.90;11.70;;;;;;;;;;2614796;54;20502;-75
2023/08/23 21:42:56;;;;;;;16.13;10.80;;;;;;;;;;2614965;54;20446;-74
2023/08/23 21:48:26;;;;;;;11.70;10.57;;;;;;;;;;2615207;54;20363;-74
2023/08/23 21:53:55;;;;;;;11.63;10.57;;;;;;;;;;2614988;54;20371;-73
2023/08/23 21:59:25;;;;;;;11.47;10.47;;;;;;;;;;2615115;54;20952;-73
2023/08/23 22:04:55;;;;;;;11.67;10.77;;;;;;;;;;2615975;39;20799;-73
2023/08/23 22:10:25;;;;;;;12.53;11.33;;;;;;;;;;2615307;54;20422;-74
2023/08/23 22:15:55;;;;;;;11.03;10.03;;;;;;;;;;2615278;54;20386;-73
2023/08/23 22:21:25;;;;;;;11.90;10.80;;;;;;;;;;2615099;54;20407;-73
2023/08/23 22:26:55;;;;;;;11.60;10.70;;;;;;;;;;2615132;54;20390;-74
2023/08/23 22:32:24;;;;;;;12.80;10.27;;;;;;;;;;2614688;46;20535;-73
2023/08/23 22:37:54;;;;;;;10.67;9.67;;;;;;;;;;2614877;54;20972;-72
2023/08/23 22:43:24;;;;;;;11.20;10.30;;;;;;;;;;2614696;54;20378;-72
2023/08/23 22:48:53;;;;;;;10.17;9.37;;;;;;;;;;2614536;54;20382;-73
2023/08/23 22:54:23;;;;;;;10.87;9.97;;;;;;;;;;2614364;54;20471;-73
2023/08/23 22:59:53;;;;;;;10.17;9.27;;;;;;;;;;2614692;54;20910;-70
2023/08/23 23:05:22;;;;;;;9.70;8.70;;;;;;;;;;2614398;54;20410;-70
2023/08/23 23:10:52;;;;;;;10.20;9.20;;;;;;;;;;2614998;54;20415;-69
2023/08/23 23:16:22;;;;;;;10.97;9.97;;;;;;;;;;2614432;54;20398;-69
2023/08/23 23:21:51;;;;;;;9.77;8.97;;;;;;;;;;2614556;54;20886;-70
2023/08/23 23:27:21;;;;;;;10.07;9.20;;;;;;;;;;2614387;54;20463;-71
2023/08/23 23:32:52;;;;;;;10.70;9.70;;;;;;;;;;2614730;54;20375;-70
2023/08/23 23:38:21;;;;;;;11.17;9.97;;;;;;;;;;2615171;54;20354;-73
2023/08/23 23:49:58;;;;;;;12.43;10.80;;;;;;;;;;2615394;54;20410;-73
2023/08/23 23:55:28;;;;;;;10.67;9.73;;;;;;;;;;2615112;39;20755;-74
